sensor_id;sensor_type;location;lat;lon;timestamp;P1;durP1;ratioP1;P2;durP2;ratioP2
45614;SDS011;31321;40.922;14.436;2022-07-06T00:02:20;10.35;;;2.40;;
45614;SDS011;31321;40.922;14.436;2022-07-06T00:04:46;13.00;;;3.08;;
45614;SDS011;31321;40.922;14.436;2022-07-06T00:07:12;11.02;;;2.67;;
45614;SDS011;31321;40.922;14.436;2022-07-06T00:09:40;9.60;;;1.63;;
45614;SDS011;31321;40.922;14.436;2022-07-06T00:12:06;6.53;;;2.08;;
45614;SDS011;31321;40.922;14.436;2022-07-06T00:14:33;9.73;;;2.13;;
45614;SDS011;31321;40.922;14.436;2022-07-06T00:16:59;8.65;;;1.90;;
45614;SDS011;31321;40.922;14.436;2022-07-06T00:19:25;9.05;;;2.47;;
45614;SDS011;31321;40.922;14.436;2022-07-06T00:21:51;7.82;;;2.25;;
45614;SDS011;31321;40.922;14.436;2022-07-06T00:24:17;10.23;;;3.42;;
45614;SDS011;31321;40.922;14.436;2022-07-06T00:26:44;9.50;;;3.17;;
45614;SDS011;31321;40.922;14.436;2022-07-06T00:29:10;9.57;;;2.90;;
45614;SDS011;31321;40.922;14.436;2022-07-06T00:31:36;13.20;;;2.78;;
45614;SDS011;31321;40.922;14.436;2022-07-06T00:34:02;19.55;;;4.53;;
45614;SDS011;31321;40.922;14.436;2022-07-06T00:36:28;9.35;;;3.20;;
45614;SDS011;31321;40.922;14.436;2022-07-06T00:38:54;5.90;;;2.40;;
45614;SDS011;31321;40.922;14.436;2022-07-06T00:41:20;7.43;;;2.60;;
45614;SDS011;31321;40.922;14.436;2022-07-06T00:43:48;13.63;;;2.70;;
45614;SDS011;31321;40.922;14.436;2022-07-06T00:46:15;14.50;;;3.70;;
45614;SDS011;31321;40.922;14.436;2022-07-06T00:48:41;10.20;;;3.25;;
45614;SDS011;31321;40.922;14.436;2022-07-06T00:51:07;10.88;;;3.58;;
45614;SDS011;31321;40.922;14.436;2022-07-06T00:53:33;11.63;;;4.00;;
45614;SDS011;31321;40.922;14.436;2022-07-06T00:56:00;8.90;;;3.20;;
45614;SDS011;31321;40.922;14.436;2022-07-06T00:58:26;13.02;;;4.13;;
45614;SDS011;31321;40.922;14.436;2022-07-06T01:00:52;7.38;;;3.30;;
45614;SDS011;31321;40.922;14.436;2022-07-06T01:03:18;10.93;;;3.03;;
45614;SDS011;31321;40.922;14.436;2022-07-06T01:05:45;9.80;;;3.75;;
45614;SDS011;31321;40.922;14.436;2022-07-06T01:08:11;11.43;;;2.72;;
45614;SDS011;31321;40.922;14.436;2022-07-06T01:10:38;10.75;;;2.90;;
45614;SDS011;31321;40.922;14.436;2022-07-06T01:13:04;13.18;;;3.53;;
45614;SDS011;31321;40.922;14.436;2022-07-06T01:15:30;5.25;;;2.10;;
45614;SDS011;31321;40.922;14.436;2022-07-06T01:17:56;6.07;;;2.50;;
45614;SDS011;31321;40.922;14.436;2022-07-06T01:20:23;9.70;;;2.63;;
45614;SDS011;31321;40.922;14.436;2022-07-06T01:22:50;7.95;;;2.35;;
45614;SDS011;31321;40.922;14.436;2022-07-06T01:25:17;7.00;;;2.22;;
45614;SDS011;31321;40.922;14.436;2022-07-06T01:27:44;10.15;;;2.25;;
45614;SDS011;31321;40.922;14.436;2022-07-06T01:30:12;9.50;;;2.33;;
45614;SDS011;31321;40.922;14.436;2022-07-06T01:32:43;9.98;;;2.25;;
45614;SDS011;31321;40.922;14.436;2022-07-06T01:35:11;10.80;;;2.45;;
45614;SDS011;31321;40.922;14.436;2022-07-06T01:37:38;5.80;;;1.98;;
45614;SDS011;31321;40.922;14.436;2022-07-06T01:40:06;4.82;;;1.70;;
45614;SDS011;31321;40.922;14.436;2022-07-06T01:42:34;6.80;;;1.92;;
45614;SDS011;31321;40.922;14.436;2022-07-06T01:45:02;6.80;;;2.20;;
45614;SDS011;31321;40.922;14.436;2022-07-06T01:47:29;14.38;;;1.80;;
45614;SDS011;31321;40.922;14.436;2022-07-06T01:49:59;7.03;;;1.95;;
45614;SDS011;31321;40.922;14.436;2022-07-06T01:52:26;12.77;;;2.45;;
45614;SDS011;31321;40.922;14.436;2022-07-06T01:54:53;8.80;;;2.22;;
45614;SDS011;31321;40.922;14.436;2022-07-06T01:57:20;14.50;;;2.70;;
45614;SDS011;31321;40.922;14.436;2022-07-06T01:59:46;8.45;;;2.15;;
45614;SDS011;31321;40.922;14.436;2022-07-06T02:02:12;22.77;;;3.28;;
45614;SDS011;31321;40.922;14.436;2022-07-06T02:04:38;7.43;;;2.53;;
45614;SDS011;31321;40.922;14.436;2022-07-06T02:07:04;12.38;;;3.10;;
45614;SDS011;31321;40.922;14.436;2022-07-06T02:09:30;11.85;;;2.53;;
45614;SDS011;31321;40.922;14.436;2022-07-06T02:11:56;9.60;;;3.03;;
45614;SDS011;31321;40.922;14.436;2022-07-06T02:14:22;7.70;;;3.13;;
45614;SDS011;31321;40.922;14.436;2022-07-06T02:16:48;13.75;;;3.58;;
45614;SDS011;31321;40.922;14.436;2022-07-06T02:19:14;10.13;;;4.25;;
45614;SDS011;31321;40.922;14.436;2022-07-06T02:21:40;9.85;;;3.38;;
45614;SDS011;31321;40.922;14.436;2022-07-06T02:24:06;7.05;;;3.03;;
45614;SDS011;31321;40.922;14.436;2022-07-06T02:26:32;8.90;;;3.05;;
45614;SDS011;31321;40.922;14.436;2022-07-06T02:28:57;8.05;;;2.33;;
45614;SDS011;31321;40.922;14.436;2022-07-06T02:31:23;7.07;;;2.65;;
45614;SDS011;31321;40.922;14.436;2022-07-06T02:33:49;7.55;;;2.60;;
45614;SDS011;31321;40.922;14.436;2022-07-06T02:36:15;7.82;;;2.80;;
45614;SDS011;31321;40.922;14.436;2022-07-06T02:38:41;9.23;;;2.83;;
45614;SDS011;31321;40.922;14.436;2022-07-06T02:41:07;10.30;;;3.20;;
45614;SDS011;31321;40.922;14.436;2022-07-06T02:43:33;6.75;;;2.85;;
45614;SDS011;31321;40.922;14.436;2022-07-06T02:45:59;10.50;;;2.55;;
45614;SDS011;31321;40.922;14.436;2022-07-06T02:48:25;13.77;;;2.53;;
45614;SDS011;31321;40.922;14.436;2022-07-06T02:50:51;8.68;;;2.63;;
45614;SDS011;31321;40.922;14.436;2022-07-06T02:53:17;7.72;;;2.13;;
45614;SDS011;31321;40.922;14.436;2022-07-06T02:55:44;3.80;;;2.33;;
45614;SDS011;31321;40.922;14.436;2022-07-06T02:58:10;11.73;;;2.33;;
45614;SDS011;31321;40.922;14.436;2022-07-06T03:00:36;15.95;;;4.03;;
45614;SDS011;31321;40.922;14.436;2022-07-06T03:03:02;7.13;;;2.70;;
45614;SDS011;31321;40.922;14.436;2022-07-06T03:05:28;8.32;;;2.55;;
45614;SDS011;31321;40.922;14.436;2022-07-06T03:07:54;7.80;;;2.58;;
45614;SDS011;31321;40.922;14.436;2022-07-06T03:10:20;9.48;;;2.63;;
45614;SDS011;31321;40.922;14.436;2022-07-06T03:12:45;8.35;;;3.13;;
45614;SDS011;31321;40.922;14.436;2022-07-06T03:15:11;13.80;;;3.00;;
45614;SDS011;31321;40.922;14.436;2022-07-06T03:17:37;15.57;;;4.45;;
45614;SDS011;31321;40.922;14.436;2022-07-06T03:20:04;18.00;;;4.57;;
45614;SDS011;31321;40.922;14.436;2022-07-06T03:22:30;11.73;;;3.90;;
45614;SDS011;31321;40.922;14.436;2022-07-06T03:24:57;11.60;;;4.20;;
45614;SDS011;31321;40.922;14.436;2022-07-06T03:27:23;10.38;;;4.22;;
45614;SDS011;31321;40.922;14.436;2022-07-06T03:29:48;11.73;;;4.43;;
45614;SDS011;31321;40.922;14.436;2022-07-06T03:32:14;16.48;;;5.10;;
45614;SDS011;31321;40.922;14.436;2022-07-06T03:34:40;12.50;;;5.95;;
45614;SDS011;31321;40.922;14.436;2022-07-06T03:37:06;16.23;;;5.53;;
45614;SDS011;31321;40.922;14.436;2022-07-06T03:39:33;17.75;;;6.25;;
45614;SDS011;31321;40.922;14.436;2022-07-06T03:41:59;12.63;;;4.70;;
45614;SDS011;31321;40.922;14.436;2022-07-06T03:44:25;11.85;;;4.78;;
45614;SDS011;31321;40.922;14.436;2022-07-06T03:46:51;16.40;;;4.60;;
45614;SDS011;31321;40.922;14.436;2022-07-06T03:49:20;56.20;;;8.40;;
45614;SDS011;31321;40.922;14.436;2022-07-06T03:51:46;30.52;;;6.70;;
45614;SDS011;31321;40.922;14.436;2022-07-06T03:54:12;13.30;;;3.88;;
45614;SDS011;31321;40.922;14.436;2022-07-06T03:56:38;9.80;;;4.07;;
45614;SDS011;31321;40.922;14.436;2022-07-06T03:59:04;11.60;;;3.70;;
45614;SDS011;31321;40.922;14.436;2022-07-06T04:01:30;9.32;;;3.97;;
45614;SDS011;31321;40.922;14.436;2022-07-06T04:03:56;13.65;;;3.38;;
45614;SDS011;31321;40.922;14.436;2022-07-06T04:06:22;9.98;;;4.18;;
45614;SDS011;31321;40.922;14.436;2022-07-06T04:08:49;10.80;;;3.90;;
45614;SDS011;31321;40.922;14.436;2022-07-06T04:11:15;9.70;;;3.13;;
45614;SDS011;31321;40.922;14.436;2022-07-06T04:13:41;11.00;;;3.03;;
45614;SDS011;31321;40.922;14.436;2022-07-06T04:16:07;11.05;;;2.92;;
45614;SDS011;31321;40.922;14.436;2022-07-06T04:18:33;13.48;;;4.35;;
45614;SDS011;31321;40.922;14.436;2022-07-06T04:21:00;12.90;;;3.40;;
45614;SDS011;31321;40.922;14.436;2022-07-06T04:23:27;15.52;;;3.30;;
45614;SDS011;31321;40.922;14.436;2022-07-06T04:25:53;9.73;;;2.95;;
45614;SDS011;31321;40.922;14.436;2022-07-06T04:28:19;12.35;;;3.13;;
45614;SDS011;31321;40.922;14.436;2022-07-06T04:30:45;8.57;;;3.00;;
45614;SDS011;31321;40.922;14.436;2022-07-06T04:33:11;13.77;;;3.47;;
45614;SDS011;31321;40.922;14.436;2022-07-06T04:35:37;14.25;;;3.45;;
45614;SDS011;31321;40.922;14.436;2022-07-06T04:38:03;11.77;;;3.35;;
45614;SDS011;31321;40.922;14.436;2022-07-06T04:40:30;8.63;;;3.05;;
45614;SDS011;31321;40.922;14.436;2022-07-06T04:42:56;9.32;;;2.55;;
45614;SDS011;31321;40.922;14.436;2022-07-06T04:45:22;11.65;;;2.97;;
45614;SDS011;31321;40.922;14.436;2022-07-06T04:47:48;12.00;;;2.80;;
45614;SDS011;31321;40.922;14.436;2022-07-06T04:50:13;8.05;;;3.35;;
45614;SDS011;31321;40.922;14.436;2022-07-06T04:52:39;6.57;;;2.30;;
45614;SDS011;31321;40.922;14.436;2022-07-06T04:55:06;8.55;;;2.97;;
45614;SDS011;31321;40.922;14.436;2022-07-06T04:57:33;10.20;;;3.75;;
45614;SDS011;31321;40.922;14.436;2022-07-06T05:00:00;12.38;;;3.28;;
45614;SDS011;31321;40.922;14.436;2022-07-06T05:02:26;6.95;;;2.30;;
45614;SDS011;31321;40.922;14.436;2022-07-06T05:04:52;9.73;;;3.05;;
45614;SDS011;31321;40.922;14.436;2022-07-06T05:07:18;15.80;;;4.57;;
45614;SDS011;31321;40.922;14.436;2022-07-06T05:09:44;12.15;;;3.60;;
45614;SDS011;31321;40.922;14.436;2022-07-06T05:12:10;14.98;;;4.30;;
45614;SDS011;31321;40.922;14.436;2022-07-06T05:14:36;16.25;;;5.38;;
45614;SDS011;31321;40.922;14.436;2022-07-06T05:17:02;13.77;;;5.63;;
45614;SDS011;31321;40.922;14.436;2022-07-06T05:19:28;13.40;;;4.85;;
45614;SDS011;31321;40.922;14.436;2022-07-06T05:21:54;15.25;;;5.68;;
45614;SDS011;31321;40.922;14.436;2022-07-06T05:24:21;17.35;;;4.88;;
45614;SDS011;31321;40.922;14.436;2022-07-06T05:26:47;15.07;;;5.53;;
45614;SDS011;31321;40.922;14.436;2022-07-06T05:29:13;15.27;;;5.07;;
45614;SDS011;31321;40.922;14.436;2022-07-06T05:31:39;16.58;;;5.82;;
45614;SDS011;31321;40.922;14.436;2022-07-06T05:34:05;15.13;;;6.22;;
45614;SDS011;31321;40.922;14.436;2022-07-06T05:36:31;29.00;;;8.45;;
45614;SDS011;31321;40.922;14.436;2022-07-06T05:38:57;18.25;;;7.18;;
45614;SDS011;31321;40.922;14.436;2022-07-06T05:41:23;24.00;;;7.85;;
45614;SDS011;31321;40.922;14.436;2022-07-06T05:43:49;36.80;;;16.77;;
45614;SDS011;31321;40.922;14.436;2022-07-06T05:46:14;48.63;;;22.95;;
45614;SDS011;31321;40.922;14.436;2022-07-06T05:48:40;63.83;;;26.38;;
45614;SDS011;31321;40.922;14.436;2022-07-06T05:51:25;54.38;;;29.15;;
45614;SDS011;31321;40.922;14.436;2022-07-06T05:53:51;24.23;;;12.25;;
45614;SDS011;31321;40.922;14.436;2022-07-06T05:56:17;16.98;;;6.40;;
45614;SDS011;31321;40.922;14.436;2022-07-06T05:58:43;20.90;;;6.72;;
45614;SDS011;31321;40.922;14.436;2022-07-06T06:01:09;20.77;;;5.90;;
45614;SDS011;31321;40.922;14.436;2022-07-06T06:03:35;16.58;;;6.18;;
45614;SDS011;31321;40.922;14.436;2022-07-06T06:06:01;17.63;;;5.45;;
45614;SDS011;31321;40.922;14.436;2022-07-06T06:08:27;18.58;;;6.03;;
45614;SDS011;31321;40.922;14.436;2022-07-06T06:10:53;17.17;;;5.30;;
45614;SDS011;31321;40.922;14.436;2022-07-06T06:13:19;14.65;;;4.32;;
45614;SDS011;31321;40.922;14.436;2022-07-06T06:15:45;12.15;;;4.10;;
45614;SDS011;31321;40.922;14.436;2022-07-06T06:18:11;13.75;;;4.13;;
45614;SDS011;31321;40.922;14.436;2022-07-06T06:20:37;11.63;;;3.30;;
45614;SDS011;31321;40.922;14.436;2022-07-06T06:23:03;10.52;;;3.15;;
45614;SDS011;31321;40.922;14.436;2022-07-06T06:25:34;17.30;;;3.17;;
45614;SDS011;31321;40.922;14.436;2022-07-06T06:28:03;9.65;;;3.60;;
45614;SDS011;31321;40.922;14.436;2022-07-06T06:33:12;14.20;;;3.15;;
45614;SDS011;31321;40.922;14.436;2022-07-06T06:35:46;17.13;;;3.85;;
45614;SDS011;31321;40.922;14.436;2022-07-06T06:38:14;11.38;;;3.83;;
45614;SDS011;31321;40.922;14.436;2022-07-06T06:40:41;8.13;;;2.65;;
45614;SDS011;31321;40.922;14.436;2022-07-06T06:43:07;12.68;;;3.40;;
45614;SDS011;31321;40.922;14.436;2022-07-06T06:45:33;16.08;;;3.70;;
45614;SDS011;31321;40.922;14.436;2022-07-06T06:47:59;14.77;;;3.08;;
45614;SDS011;31321;40.922;14.436;2022-07-06T06:50:25;11.68;;;2.78;;
45614;SDS011;31321;40.922;14.436;2022-07-06T06:52:51;9.50;;;2.92;;
45614;SDS011;31321;40.922;14.436;2022-07-06T06:55:17;8.48;;;2.05;;
45614;SDS011;31321;40.922;14.436;2022-07-06T06:57:44;9.70;;;2.55;;
45614;SDS011;31321;40.922;14.436;2022-07-06T07:00:10;11.73;;;2.65;;
45614;SDS011;31321;40.922;14.436;2022-07-06T07:02:36;12.10;;;2.25;;
45614;SDS011;31321;40.922;14.436;2022-07-06T07:05:04;9.50;;;1.80;;
45614;SDS011;31321;40.922;14.436;2022-07-06T07:07:30;11.23;;;2.72;;
45614;SDS011;31321;40.922;14.436;2022-07-06T07:09:56;8.95;;;1.92;;
45614;SDS011;31321;40.922;14.436;2022-07-06T07:12:23;6.47;;;2.53;;
45614;SDS011;31321;40.922;14.436;2022-07-06T07:14:49;12.55;;;2.03;;
45614;SDS011;31321;40.922;14.436;2022-07-06T07:17:15;7.15;;;1.75;;
45614;SDS011;31321;40.922;14.436;2022-07-06T07:19:41;7.18;;;2.20;;
45614;SDS011;31321;40.922;14.436;2022-07-06T07:22:07;9.18;;;2.28;;
45614;SDS011;31321;40.922;14.436;2022-07-06T07:24:33;10.73;;;2.10;;
45614;SDS011;31321;40.922;14.436;2022-07-06T07:26:59;11.18;;;1.70;;
45614;SDS011;31321;40.922;14.436;2022-07-06T07:29:25;13.13;;;2.30;;
45614;SDS011;31321;40.922;14.436;2022-07-06T07:31:51;9.43;;;2.05;;
45614;SDS011;31321;40.922;14.436;2022-07-06T07:34:18;7.93;;;1.90;;
45614;SDS011;31321;40.922;14.436;2022-07-06T07:36:43;9.27;;;1.80;;
45614;SDS011;31321;40.922;14.436;2022-07-06T07:39:09;10.85;;;1.90;;
45614;SDS011;31321;40.922;14.436;2022-07-06T07:41:35;8.88;;;2.03;;
45614;SDS011;31321;40.922;14.436;2022-07-06T07:44:01;7.85;;;2.25;;
45614;SDS011;31321;40.922;14.436;2022-07-06T07:46:27;13.85;;;2.75;;
45614;SDS011;31321;40.922;14.436;2022-07-06T07:48:53;10.98;;;2.30;;
45614;SDS011;31321;40.922;14.436;2022-07-06T07:51:19;6.70;;;2.03;;
45614;SDS011;31321;40.922;14.436;2022-07-06T07:53:45;17.80;;;2.53;;
45614;SDS011;31321;40.922;14.436;2022-07-06T07:56:11;18.13;;;3.30;;
45614;SDS011;31321;40.922;14.436;2022-07-06T07:58:37;14.75;;;2.78;;
45614;SDS011;31321;40.922;14.436;2022-07-06T08:01:03;8.50;;;2.88;;
45614;SDS011;31321;40.922;14.436;2022-07-06T08:03:29;11.15;;;3.72;;
45614;SDS011;31321;40.922;14.436;2022-07-06T08:05:56;68.13;;;7.97;;
45614;SDS011;31321;40.922;14.436;2022-07-06T08:08:22;15.35;;;3.47;;
45614;SDS011;31321;40.922;14.436;2022-07-06T08:10:48;12.95;;;3.45;;
45614;SDS011;31321;40.922;14.436;2022-07-06T08:13:14;11.13;;;2.28;;
45614;SDS011;31321;40.922;14.436;2022-07-06T08:15:41;13.43;;;2.60;;
45614;SDS011;31321;40.922;14.436;2022-07-06T08:18:07;9.23;;;2.78;;
45614;SDS011;31321;40.922;14.436;2022-07-06T08:20:34;9.35;;;3.05;;
45614;SDS011;31321;40.922;14.436;2022-07-06T08:23:01;8.13;;;2.55;;
45614;SDS011;31321;40.922;14.436;2022-07-06T08:25:27;12.18;;;2.95;;
45614;SDS011;31321;40.922;14.436;2022-07-06T08:27:53;13.40;;;2.55;;
45614;SDS011;31321;40.922;14.436;2022-07-06T08:30:19;19.90;;;3.15;;
45614;SDS011;31321;40.922;14.436;2022-07-06T08:32:45;7.68;;;1.52;;
45614;SDS011;31321;40.922;14.436;2022-07-06T08:35:11;7.35;;;1.80;;
45614;SDS011;31321;40.922;14.436;2022-07-06T08:37:37;9.23;;;1.73;;
45614;SDS011;31321;40.922;14.436;2022-07-06T08:40:03;11.13;;;2.63;;
45614;SDS011;31321;40.922;14.436;2022-07-06T08:42:31;13.23;;;2.00;;
45614;SDS011;31321;40.922;14.436;2022-07-06T08:44:59;9.77;;;2.50;;
45614;SDS011;31321;40.922;14.436;2022-07-06T08:47:30;10.60;;;2.00;;
45614;SDS011;31321;40.922;14.436;2022-07-06T08:49:56;13.18;;;3.58;;
45614;SDS011;31321;40.922;14.436;2022-07-06T08:52:23;8.45;;;1.83;;
45614;SDS011;31321;40.922;14.436;2022-07-06T08:54:49;9.88;;;1.58;;
45614;SDS011;31321;40.922;14.436;2022-07-06T08:57:16;9.27;;;2.00;;
45614;SDS011;31321;40.922;14.436;2022-07-06T08:59:42;16.10;;;1.98;;
45614;SDS011;31321;40.922;14.436;2022-07-06T09:02:09;10.50;;;1.70;;
45614;SDS011;31321;40.922;14.436;2022-07-06T09:04:36;10.27;;;2.30;;
45614;SDS011;31321;40.922;14.436;2022-07-06T09:07:03;12.82;;;2.53;;
45614;SDS011;31321;40.922;14.436;2022-07-06T09:09:29;8.10;;;2.03;;
45614;SDS011;31321;40.922;14.436;2022-07-06T09:11:56;13.50;;;2.22;;
45614;SDS011;31321;40.922;14.436;2022-07-06T09:14:22;11.30;;;3.33;;
45614;SDS011;31321;40.922;14.436;2022-07-06T09:16:51;27.23;;;3.45;;
45614;SDS011;31321;40.922;14.436;2022-07-06T09:19:27;13.77;;;3.38;;
45614;SDS011;31321;40.922;14.436;2022-07-06T09:21:53;11.82;;;2.75;;
45614;SDS011;31321;40.922;14.436;2022-07-06T09:24:19;18.38;;;3.50;;
45614;SDS011;31321;40.922;14.436;2022-07-06T09:26:46;8.10;;;2.65;;
45614;SDS011;31321;40.922;14.436;2022-07-06T09:29:13;11.75;;;2.88;;
45614;SDS011;31321;40.922;14.436;2022-07-06T09:31:39;12.45;;;3.60;;
45614;SDS011;31321;40.922;14.436;2022-07-06T09:34:06;14.18;;;3.30;;
45614;SDS011;31321;40.922;14.436;2022-07-06T09:39:14;12.32;;;2.85;;
45614;SDS011;31321;40.922;14.436;2022-07-06T09:41:49;11.35;;;3.58;;
45614;SDS011;31321;40.922;14.436;2022-07-06T09:44:18;6.45;;;2.38;;
45614;SDS011;31321;40.922;14.436;2022-07-06T09:46:46;13.70;;;2.30;;
45614;SDS011;31321;40.922;14.436;2022-07-06T09:49:16;11.55;;;2.95;;
45614;SDS011;31321;40.922;14.436;2022-07-06T09:51:44;10.73;;;3.08;;
45614;SDS011;31321;40.922;14.436;2022-07-06T09:54:12;12.85;;;3.20;;
45614;SDS011;31321;40.922;14.436;2022-07-06T09:56:38;10.98;;;3.42;;
45614;SDS011;31321;40.922;14.436;2022-07-06T09:59:13;12.95;;;3.75;;
45614;SDS011;31321;40.922;14.436;2022-07-06T10:01:40;10.55;;;3.58;;
45614;SDS011;31321;40.922;14.436;2022-07-06T10:04:08;15.98;;;3.20;;
45614;SDS011;31321;40.922;14.436;2022-07-06T10:06:37;16.17;;;3.38;;
45614;SDS011;31321;40.922;14.436;2022-07-06T10:09:05;13.02;;;3.00;;
45614;SDS011;31321;40.922;14.436;2022-07-06T10:11:32;12.50;;;3.13;;
45614;SDS011;31321;40.922;14.436;2022-07-06T10:14:03;10.02;;;3.40;;
45614;SDS011;31321;40.922;14.436;2022-07-06T10:16:30;14.05;;;4.05;;
45614;SDS011;31321;40.922;14.436;2022-07-06T10:18:58;16.52;;;4.53;;
45614;SDS011;31321;40.922;14.436;2022-07-06T10:21:26;17.95;;;3.85;;
45614;SDS011;31321;40.922;14.436;2022-07-06T10:23:52;19.67;;;4.20;;
45614;SDS011;31321;40.922;14.436;2022-07-06T10:26:19;11.88;;;4.25;;
45614;SDS011;31321;40.922;14.436;2022-07-06T10:28:48;12.88;;;3.97;;
45614;SDS011;31321;40.922;14.436;2022-07-06T10:31:15;12.13;;;3.28;;
45614;SDS011;31321;40.922;14.436;2022-07-06T10:33:43;7.95;;;3.40;;
45614;SDS011;31321;40.922;14.436;2022-07-06T10:36:10;11.77;;;3.72;;
45614;SDS011;31321;40.922;14.436;2022-07-06T10:38:36;12.57;;;4.75;;
45614;SDS011;31321;40.922;14.436;2022-07-06T10:41:03;13.15;;;4.47;;
45614;SDS011;31321;40.922;14.436;2022-07-06T10:45:59;17.17;;;4.85;;
45614;SDS011;31321;40.922;14.436;2022-07-06T10:48:34;13.35;;;4.18;;
45614;SDS011;31321;40.922;14.436;2022-07-06T10:51:01;10.93;;;4.53;;
45614;SDS011;31321;40.922;14.436;2022-07-06T10:53:31;9.85;;;3.40;;
45614;SDS011;31321;40.922;14.436;2022-07-06T10:56:00;15.40;;;4.95;;
45614;SDS011;31321;40.922;14.436;2022-07-06T11:01:18;12.15;;;4.40;;
45614;SDS011;31321;40.922;14.436;2022-07-06T11:06:32;14.02;;;4.88;;
45614;SDS011;31321;40.922;14.436;2022-07-06T11:09:01;13.63;;;4.30;;
45614;SDS011;31321;40.922;14.436;2022-07-06T11:14:03;12.10;;;4.32;;
45614;SDS011;31321;40.922;14.436;2022-07-06T11:16:33;14.27;;;4.85;;
45614;SDS011;31321;40.922;14.436;2022-07-06T11:19:03;17.85;;;5.85;;
45614;SDS011;31321;40.922;14.436;2022-07-06T11:21:35;14.33;;;5.10;;
45614;SDS011;31321;40.922;14.436;2022-07-06T11:24:01;15.30;;;5.53;;
45614;SDS011;31321;40.922;14.436;2022-07-06T11:26:28;12.93;;;5.25;;
45614;SDS011;31321;40.922;14.436;2022-07-06T11:28:56;26.55;;;4.97;;
45614;SDS011;31321;40.922;14.436;2022-07-06T11:33:51;10.80;;;4.80;;
45614;SDS011;31321;40.922;14.436;2022-07-06T11:36:17;11.27;;;3.78;;
45614;SDS011;31321;40.922;14.436;2022-07-06T11:38:47;8.50;;;3.13;;
45614;SDS011;31321;40.922;14.436;2022-07-06T11:41:14;10.88;;;3.05;;
45614;SDS011;31321;40.922;14.436;2022-07-06T11:43:44;4.35;;;2.47;;
45614;SDS011;31321;40.922;14.436;2022-07-06T11:46:19;15.52;;;3.45;;
45614;SDS011;31321;40.922;14.436;2022-07-06T11:48:54;8.10;;;2.38;;
45614;SDS011;31321;40.922;14.436;2022-07-06T11:51:23;13.05;;;2.97;;
45614;SDS011;31321;40.922;14.436;2022-07-06T11:53:52;13.30;;;2.40;;
45614;SDS011;31321;40.922;14.436;2022-07-06T11:56:21;11.40;;;1.98;;
45614;SDS011;31321;40.922;14.436;2022-07-06T11:58:50;11.95;;;1.92;;
45614;SDS011;31321;40.922;14.436;2022-07-06T12:01:17;10.07;;;2.35;;
45614;SDS011;31321;40.922;14.436;2022-07-06T12:03:44;9.68;;;2.63;;
45614;SDS011;31321;40.922;14.436;2022-07-06T12:06:15;14.88;;;3.38;;
45614;SDS011;31321;40.922;14.436;2022-07-06T12:08:47;12.10;;;3.20;;
45614;SDS011;31321;40.922;14.436;2022-07-06T12:11:21;7.38;;;2.30;;
45614;SDS011;31321;40.922;14.436;2022-07-06T12:13:51;8.00;;;2.88;;
45614;SDS011;31321;40.922;14.436;2022-07-06T12:16:30;12.60;;;2.75;;
45614;SDS011;31321;40.922;14.436;2022-07-06T12:18:59;11.35;;;2.92;;
45614;SDS011;31321;40.922;14.436;2022-07-06T12:21:27;12.15;;;2.13;;
45614;SDS011;31321;40.922;14.436;2022-07-06T12:23:54;12.57;;;2.38;;
45614;SDS011;31321;40.922;14.436;2022-07-06T12:26:22;18.50;;;2.92;;
45614;SDS011;31321;40.922;14.436;2022-07-06T12:31:40;13.53;;;2.37;;
45614;SDS011;31321;40.922;14.436;2022-07-06T12:34:13;4.13;;;2.38;;
45614;SDS011;31321;40.922;14.436;2022-07-06T12:36:45;14.07;;;3.08;;
45614;SDS011;31321;40.922;14.436;2022-07-06T12:39:13;14.15;;;2.53;;
45614;SDS011;31321;40.922;14.436;2022-07-06T12:41:51;8.27;;;1.77;;
45614;SDS011;31321;40.922;14.436;2022-07-06T12:44:23;5.80;;;1.80;;
45614;SDS011;31321;40.922;14.436;2022-07-06T12:47:00;7.53;;;2.05;;
45614;SDS011;31321;40.922;14.436;2022-07-06T12:49:28;11.50;;;2.40;;
45614;SDS011;31321;40.922;14.436;2022-07-06T12:51:56;8.88;;;2.50;;
45614;SDS011;31321;40.922;14.436;2022-07-06T12:54:42;9.88;;;1.85;;
45614;SDS011;31321;40.922;14.436;2022-07-06T12:59:39;8.27;;;1.85;;
45614;SDS011;31321;40.922;14.436;2022-07-06T13:02:08;17.13;;;2.30;;
45614;SDS011;31321;40.922;14.436;2022-07-06T13:04:41;6.30;;;1.90;;
45614;SDS011;31321;40.922;14.436;2022-07-06T13:07:07;7.97;;;2.20;;
45614;SDS011;31321;40.922;14.436;2022-07-06T13:09:45;8.50;;;2.63;;
45614;SDS011;31321;40.922;14.436;2022-07-06T13:12:11;7.15;;;2.65;;
45614;SDS011;31321;40.922;14.436;2022-07-06T13:14:37;13.02;;;3.45;;
45614;SDS011;31321;40.922;14.436;2022-07-06T13:17:02;8.55;;;2.97;;
45614;SDS011;31321;40.922;14.436;2022-07-06T13:19:29;12.57;;;2.80;;
45614;SDS011;31321;40.922;14.436;2022-07-06T13:21:54;10.93;;;3.17;;
45614;SDS011;31321;40.922;14.436;2022-07-06T13:24:20;8.93;;;3.30;;
45614;SDS011;31321;40.922;14.436;2022-07-06T13:26:46;16.67;;;3.75;;
45614;SDS011;31321;40.922;14.436;2022-07-06T13:29:13;7.53;;;2.40;;
45614;SDS011;31321;40.922;14.436;2022-07-06T13:31:39;14.75;;;2.72;;
45614;SDS011;31321;40.922;14.436;2022-07-06T13:34:06;6.93;;;2.40;;
45614;SDS011;31321;40.922;14.436;2022-07-06T13:36:33;4.75;;;2.17;;
45614;SDS011;31321;40.922;14.436;2022-07-06T13:39:00;7.78;;;2.40;;
45614;SDS011;31321;40.922;14.436;2022-07-06T13:41:26;8.68;;;2.78;;
45614;SDS011;31321;40.922;14.436;2022-07-06T13:43:52;8.52;;;2.80;;
45614;SDS011;31321;40.922;14.436;2022-07-06T13:46:19;5.50;;;2.53;;
45614;SDS011;31321;40.922;14.436;2022-07-06T13:48:46;7.43;;;2.53;;
45614;SDS011;31321;40.922;14.436;2022-07-06T13:51:12;12.48;;;2.92;;
45614;SDS011;31321;40.922;14.436;2022-07-06T13:53:38;9.77;;;2.15;;
45614;SDS011;31321;40.922;14.436;2022-07-06T13:56:04;9.00;;;2.25;;
45614;SDS011;31321;40.922;14.436;2022-07-06T13:58:31;5.65;;;2.53;;
45614;SDS011;31321;40.922;14.436;2022-07-06T14:00:57;7.47;;;2.20;;
45614;SDS011;31321;40.922;14.436;2022-07-06T14:03:23;7.07;;;2.75;;
45614;SDS011;31321;40.922;14.436;2022-07-06T14:05:54;11.38;;;2.90;;
45614;SDS011;31321;40.922;14.436;2022-07-06T14:08:22;12.65;;;2.13;;
45614;SDS011;31321;40.922;14.436;2022-07-06T14:10:48;5.90;;;2.15;;
45614;SDS011;31321;40.922;14.436;2022-07-06T14:13:14;7.72;;;1.92;;
45614;SDS011;31321;40.922;14.436;2022-07-06T14:15:40;8.10;;;2.15;;
45614;SDS011;31321;40.922;14.436;2022-07-06T14:18:06;7.32;;;2.20;;
45614;SDS011;31321;40.922;14.436;2022-07-06T14:20:32;4.45;;;2.42;;
45614;SDS011;31321;40.922;14.436;2022-07-06T14:22:58;5.40;;;2.20;;
45614;SDS011;31321;40.922;14.436;2022-07-06T14:25:24;10.57;;;1.95;;
45614;SDS011;31321;40.922;14.436;2022-07-06T14:27:50;6.97;;;2.53;;
45614;SDS011;31321;40.922;14.436;2022-07-06T14:30:16;4.25;;;1.92;;
45614;SDS011;31321;40.922;14.436;2022-07-06T14:32:42;9.93;;;2.70;;
45614;SDS011;31321;40.922;14.436;2022-07-06T14:35:09;7.60;;;2.28;;
45614;SDS011;31321;40.922;14.436;2022-07-06T14:37:35;6.07;;;1.85;;
45614;SDS011;31321;40.922;14.436;2022-07-06T14:40:03;5.32;;;2.10;;
45614;SDS011;31321;40.922;14.436;2022-07-06T14:42:29;6.85;;;2.50;;
45614;SDS011;31321;40.922;14.436;2022-07-06T14:44:55;10.55;;;2.50;;
45614;SDS011;31321;40.922;14.436;2022-07-06T14:47:23;9.43;;;2.80;;
45614;SDS011;31321;40.922;14.436;2022-07-06T14:49:49;6.93;;;1.92;;